Time;durP1;ratioP1;P1;durP2;ratioP2;P2;SDS_P1;SDS_P2;PMS_P1;PMS_P2;Temp;Humidity;BMP_temperature;BMP_pressure;BME280_temperature;BME280_humidity;BME280_pressure;Samples;Min_cycle;Max_cycle;Signal;HPM_P1;HPM_P2
2023/06/16 00:02:01;;;;;;;7.13;5.13;;;;;;;;;;10064515;29;20098;-67
2023/06/16 00:06:58;;;;;;;6.38;5.20;;;;;;;;;;10064896;29;20093;-67
2023/06/16 00:11:54;;;;;;;6.97;4.95;;;;;;;;;;10066212;29;20051;-67
2023/06/16 00:16:52;;;;;;;6.75;5.22;;;;;;;;;;10069244;28;20039;-67
2023/06/16 00:21:49;;;;;;;6.38;4.90;;;;;;;;;;10068659;28;20134;-67
2023/06/16 00:26:45;;;;;;;7.85;5.05;;;;;;;;;;10067411;29;20506;-68
2023/06/16 00:31:42;;;;;;;8.60;4.72;;;;;;;;;;10069017;28;20051;-68
2023/06/16 00:36:38;;;;;;;5.65;4.72;;;;;;;;;;10061834;28;20505;-68
2023/06/16 00:41:34;;;;;;;6.20;4.88;;;;;;;;;;10046374;28;20513;-68
2023/06/16 00:46:32;;;;;;;6.18;5.07;;;;;;;;;;10068548;28;20105;-69
2023/06/16 00:51:30;;;;;;;6.82;5.57;;;;;;;;;;10078920;28;20560;-67
2023/06/16 00:56:26;;;;;;;6.50;5.22;;;;;;;;;;10071450;29;20543;-67
2023/06/16 01:01:28;;;;;;;7.18;4.85;;;;;;;;;;10068619;29;20043;-68
2023/06/16 01:06:31;;;;;;;6.47;4.90;;;;;;;;;;10053355;29;20071;-67
2023/06/16 01:11:41;;;;;;;8.52;4.90;;;;;;;;;;10069608;29;20086;-68
2023/06/16 01:16:41;;;;;;;7.25;5.00;;;;;;;;;;10064973;28;20481;-67
2023/06/16 01:21:56;;;;;;;8.15;5.70;;;;;;;;;;10063120;29;20498;-68
2023/06/16 01:26:54;;;;;;;7.70;5.95;;;;;;;;;;10065768;29;20589;-68
2023/06/16 01:31:51;;;;;;;6.53;5.05;;;;;;;;;;10051760;29;20130;-67
2023/06/16 01:36:48;;;;;;;10.82;5.13;;;;;;;;;;10058583;29;20043;-67
2023/06/16 01:41:45;;;;;;;5.80;4.90;;;;;;;;;;10073684;29;20055;-67
2023/06/16 01:46:41;;;;;;;8.02;5.10;;;;;;;;;;10071418;29;20043;-67
2023/06/16 01:51:38;;;;;;;7.13;5.30;;;;;;;;;;10068381;29;20051;-68
2023/06/16 01:56:35;;;;;;;7.22;5.40;;;;;;;;;;10063381;28;20063;-67
2023/06/16 02:01:44;;;;;;;7.40;5.20;;;;;;;;;;10064130;28;20109;-67
2023/06/16 02:07:01;;;;;;;8.70;5.53;;;;;;;;;;10062365;29;20067;-67
2023/06/16 02:11:58;;;;;;;6.20;4.88;;;;;;;;;;10074225;28;20047;-67
2023/06/16 02:16:54;;;;;;;9.20;5.30;;;;;;;;;;10071286;28;20055;-67
2023/06/16 02:21:50;;;;;;;7.55;4.80;;;;;;;;;;10069353;28;20051;-67
2023/06/16 02:26:47;;;;;;;7.00;5.50;;;;;;;;;;10065810;29;20039;-67
2023/06/16 02:31:47;;;;;;;7.85;5.53;;;;;;;;;;10044619;29;20082;-68
2023/06/16 02:36:46;;;;;;;6.22;5.30;;;;;;;;;;10009810;29;20054;-67
2023/06/16 02:41:43;;;;;;;6.63;5.20;;;;;;;;;;10025540;29;20098;-68
2023/06/16 02:46:39;;;;;;;9.85;5.55;;;;;;;;;;10045204;28;20066;-68
2023/06/16 02:51:36;;;;;;;7.57;5.28;;;;;;;;;;10067222;28;20058;-68
2023/06/16 02:56:32;;;;;;;6.88;5.35;;;;;;;;;;10061474;28;20064;-68
2023/06/16 03:01:29;;;;;;;6.93;5.32;;;;;;;;;;10058664;28;20043;-67
2023/06/16 03:06:29;;;;;;;8.73;5.57;;;;;;;;;;10044968;28;20047;-67
2023/06/16 03:11:25;;;;;;;8.25;5.80;;;;;;;;;;10026147;29;20063;-67
2023/06/16 03:16:23;;;;;;;8.25;5.57;;;;;;;;;;10027570;29;21286;-67
2023/06/16 03:21:19;;;;;;;6.40;5.40;;;;;;;;;;10032834;29;20055;-67
2023/06/16 03:26:15;;;;;;;7.72;5.82;;;;;;;;;;10028102;29;20506;-67
2023/06/16 03:31:11;;;;;;;8.30;5.75;;;;;;;;;;10029375;29;20095;-67
2023/06/16 03:36:08;;;;;;;8.68;5.65;;;;;;;;;;10031351;29;20043;-67
2023/06/16 03:41:04;;;;;;;8.57;6.28;;;;;;;;;;10025709;29;20498;-67
2023/06/16 03:46:01;;;;;;;7.38;6.32;;;;;;;;;;10028788;29;20510;-67
2023/06/16 03:50:57;;;;;;;7.55;5.43;;;;;;;;;;10027478;29;20040;-68
2023/06/16 03:55:53;;;;;;;7.68;6.07;;;;;;;;;;10012384;29;20048;-67
2023/06/16 04:00:50;;;;;;;11.40;6.07;;;;;;;;;;10031228;29;20103;-67
2023/06/16 04:05:46;;;;;;;8.82;6.30;;;;;;;;;;10029669;29;20059;-67
2023/06/16 04:10:43;;;;;;;10.15;7.25;;;;;;;;;;10014289;29;20054;-67
2023/06/16 04:15:39;;;;;;;7.38;6.55;;;;;;;;;;10026391;29;20469;-69
2023/06/16 04:20:35;;;;;;;9.75;7.85;;;;;;;;;;10030383;29;20425;-69
2023/06/16 04:25:32;;;;;;;9.48;7.70;;;;;;;;;;10023198;29;20048;-67
2023/06/16 04:30:30;;;;;;;9.85;7.47;;;;;;;;;;10020683;29;20059;-67
2023/06/16 04:35:31;;;;;;;8.90;7.40;;;;;;;;;;10024461;29;20120;-71
2023/06/16 04:40:28;;;;;;;9.98;7.97;;;;;;;;;;10007339;29;20054;-71
2023/06/16 04:45:27;;;;;;;8.77;7.10;;;;;;;;;;10026316;29;20076;-70
2023/06/16 04:50:23;;;;;;;9.70;7.18;;;;;;;;;;10005540;29;20048;-69
2023/06/16 04:55:20;;;;;;;10.43;8.63;;;;;;;;;;9996593;28;20058;-72
2023/06/16 05:00:17;;;;;;;11.73;9.32;;;;;;;;;;10032917;28;20047;-73
2023/06/16 05:05:17;;;;;;;10.73;9.73;;;;;;;;;;10013457;28;20047;-73
2023/06/16 05:16:14;;;;;;;12.23;10.82;;;;;;;;;;9992982;29;20762;-72
2023/06/16 05:21:25;;;;;;;15.70;11.18;;;;;;;;;;9980686;29;20694;-73
2023/06/16 05:26:22;;;;;;;12.05;10.90;;;;;;;;;;10007468;29;20051;-73
2023/06/16 05:41:43;;;;;;;13.13;11.33;;;;;;;;;;9882031;23;20039;-73
2023/06/16 05:46:45;;;;;;;12.73;11.35;;;;;;;;;;10057981;28;20466;-73
2023/06/16 05:51:43;;;;;;;11.98;10.75;;;;;;;;;;10044904;29;20043;-73
2023/06/16 05:56:48;;;;;;;12.10;10.88;;;;;;;;;;10064183;29;20047;-73
2023/06/16 06:01:45;;;;;;;12.18;10.88;;;;;;;;;;10047138;29;20051;-72
2023/06/16 06:06:41;;;;;;;12.95;11.50;;;;;;;;;;10069373;28;20051;-72
2023/06/16 06:11:37;;;;;;;14.65;11.48;;;;;;;;;;10075195;28;20047;-72
2023/06/16 06:16:34;;;;;;;13.52;10.77;;;;;;;;;;10057839;28;20051;-72
2023/06/16 06:21:31;;;;;;;13.85;11.60;;;;;;;;;;10064525;29;20086;-72
2023/06/16 06:26:27;;;;;;;15.02;10.50;;;;;;;;;;10053598;29;20117;-72
2023/06/16 06:31:23;;;;;;;10.07;9.07;;;;;;;;;;10042551;28;20109;-70
2023/06/16 06:36:20;;;;;;;9.77;8.85;;;;;;;;;;10064992;28;20047;-69
2023/06/16 06:41:17;;;;;;;10.63;8.63;;;;;;;;;;10060589;28;20077;-70
2023/06/16 06:46:15;;;;;;;10.63;9.63;;;;;;;;;;10057779;28;20043;-69
2023/06/16 06:51:13;;;;;;;13.27;10.40;;;;;;;;;;10038219;29;21160;-70
2023/06/16 06:56:09;;;;;;;12.45;9.85;;;;;;;;;;10064771;28;20050;-69
2023/06/16 07:01:06;;;;;;;11.55;10.27;;;;;;;;;;10060292;28;20051;-70
2023/06/16 07:06:02;;;;;;;12.43;9.38;;;;;;;;;;10057556;29;20066;-71
2023/06/16 07:10:58;;;;;;;11.02;9.85;;;;;;;;;;10059106;29;20055;-70
2023/06/16 07:15:55;;;;;;;12.82;10.27;;;;;;;;;;10066562;29;20126;-70
2023/06/16 07:20:51;;;;;;;11.27;9.55;;;;;;;;;;10034039;28;20079;-70
2023/06/16 07:25:48;;;;;;;11.43;10.23;;;;;;;;;;10055703;29;20071;-70
2023/06/16 07:30:44;;;;;;;11.10;9.27;;;;;;;;;;10058496;29;20139;-70
2023/06/16 07:35:40;;;;;;;12.52;9.90;;;;;;;;;;10066510;29;20051;-70
2023/06/16 07:40:37;;;;;;;10.73;9.32;;;;;;;;;;10056202;29;20107;-70
2023/06/16 07:45:34;;;;;;;10.00;8.98;;;;;;;;;;10034059;28;20075;-71
2023/06/16 07:50:30;;;;;;;12.18;9.73;;;;;;;;;;10047138;29;20550;-70
2023/06/16 07:55:26;;;;;;;12.55;9.02;;;;;;;;;;10057847;29;20098;-70
2023/06/16 08:00:23;;;;;;;11.90;9.68;;;;;;;;;;10040017;29;20855;-70
2023/06/16 08:05:20;;;;;;;15.48;9.43;;;;;;;;;;10058397;29;20497;-70
2023/06/16 08:10:19;;;;;;;11.60;9.60;;;;;;;;;;10053537;28;20043;-70
2023/06/16 08:15:18;;;;;;;17.02;10.35;;;;;;;;;;10050654;29;20057;-70
2023/06/16 08:20:14;;;;;;;12.30;10.25;;;;;;;;;;10053733;28;20050;-70
2023/06/16 08:25:12;;;;;;;12.23;10.93;;;;;;;;;;10054264;29;20584;-70
2023/06/16 08:30:10;;;;;;;13.98;12.60;;;;;;;;;;10048497;28;20102;-70
2023/06/16 08:35:06;;;;;;;18.42;12.68;;;;;;;;;;10051300;29;20048;-70
2023/06/16 08:40:07;;;;;;;12.40;11.30;;;;;;;;;;10056527;28;20095;-70
2023/06/16 08:45:05;;;;;;;13.50;12.20;;;;;;;;;;10059072;28;20142;-70
2023/06/16 08:50:02;;;;;;;15.35;11.93;;;;;;;;;;10055978;29;20461;-72
2023/06/16 08:55:01;;;;;;;12.77;11.27;;;;;;;;;;10060345;28;20050;-70
2023/06/16 09:00:00;;;;;;;15.73;12.23;;;;;;;;;;10052401;29;20039;-70
2023/06/16 09:04:59;;;;;;;13.68;12.25;;;;;;;;;;10058325;29;20061;-69
2023/06/16 09:09:55;;;;;;;14.80;11.80;;;;;;;;;;10055200;29;20098;-70
2023/06/16 09:14:52;;;;;;;14.43;12.98;;;;;;;;;;10070328;29;20098;-69
2023/06/16 09:19:50;;;;;;;12.02;10.93;;;;;;;;;;10057551;29;20070;-68
2023/06/16 09:24:56;;;;;;;13.80;11.68;;;;;;;;;;10052744;28;20059;-68
2023/06/16 09:29:59;;;;;;;15.05;12.57;;;;;;;;;;10054182;29;20130;-68
2023/06/16 09:34:55;;;;;;;12.07;10.43;;;;;;;;;;10058869;28;20738;-70
2023/06/16 09:39:53;;;;;;;13.10;10.52;;;;;;;;;;10034102;29;20051;-70
2023/06/16 09:44:50;;;;;;;13.48;11.27;;;;;;;;;;10035135;29;20062;-70
2023/06/16 09:49:51;;;;;;;12.93;10.50;;;;;;;;;;10058595;29;20498;-70
2023/06/16 09:54:48;;;;;;;11.75;10.50;;;;;;;;;;10069136;29;20063;-70
2023/06/16 09:59:44;;;;;;;11.60;9.77;;;;;;;;;;10055557;28;20044;-70
2023/06/16 10:04:42;;;;;;;11.10;9.85;;;;;;;;;;10065960;29;20498;-70
2023/06/16 10:09:39;;;;;;;12.32;11.13;;;;;;;;;;10039932;29;20623;-70
2023/06/16 10:14:55;;;;;;;12.63;9.93;;;;;;;;;;10059738;28;20047;-70
2023/06/16 10:19:52;;;;;;;10.70;9.60;;;;;;;;;;10066640;28;20079;-70
2023/06/16 10:24:48;;;;;;;11.98;9.63;;;;;;;;;;10055690;29;20047;-70
2023/06/16 10:29:46;;;;;;;11.15;9.77;;;;;;;;;;10067770;28;20051;-70
2023/06/16 10:34:47;;;;;;;10.73;9.73;;;;;;;;;;10064130;29;20425;-70
2023/06/16 10:39:43;;;;;;;14.18;10.45;;;;;;;;;;10053933;28;20584;-70
2023/06/16 10:44:40;;;;;;;12.30;10.60;;;;;;;;;;10064324;28;20035;-71
2023/06/16 10:49:57;;;;;;;13.02;9.38;;;;;;;;;;10056317;29;20086;-70
2023/06/16 10:54:58;;;;;;;14.50;10.13;;;;;;;;;;10070349;28;20055;-70
2023/06/16 10:59:59;;;;;;;11.20;9.98;;;;;;;;;;10057490;28;20094;-70
2023/06/16 11:05:08;;;;;;;11.27;10.10;;;;;;;;;;10061011;28;20070;-70
2023/06/16 11:10:06;;;;;;;10.63;9.40;;;;;;;;;;10052454;28;20428;-70
2023/06/16 11:15:03;;;;;;;10.30;9.05;;;;;;;;;;10056059;28;20043;-70
2023/06/16 11:20:02;;;;;;;12.65;10.15;;;;;;;;;;10061785;28;20047;-70
2023/06/16 11:25:00;;;;;;;17.67;10.15;;;;;;;;;;10057803;29;20440;-70
2023/06/16 11:29:57;;;;;;;12.90;9.48;;;;;;;;;;10063674;28;20071;-70
2023/06/16 11:34:54;;;;;;;12.00;10.73;;;;;;;;;;10055054;28;20047;-70
2023/06/16 11:39:51;;;;;;;13.70;10.75;;;;;;;;;;10060391;29;20050;-70
2023/06/16 11:44:47;;;;;;;10.98;9.88;;;;;;;;;;10057416;28;20058;-70
2023/06/16 11:49:43;;;;;;;11.10;9.98;;;;;;;;;;10055550;28;20043;-69
2023/06/16 11:54:40;;;;;;;11.98;10.55;;;;;;;;;;10059795;28;20043;-70
2023/06/16 11:59:37;;;;;;;12.18;10.98;;;;;;;;;;10051926;28;20131;-70
2023/06/16 12:04:33;;;;;;;15.07;12.55;;;;;;;;;;10049168;28;20692;-70
2023/06/16 12:09:37;;;;;;;15.38;13.80;;;;;;;;;;10060357;28;20049;-70
2023/06/16 12:14:39;;;;;;;14.93;13.07;;;;;;;;;;10052216;28;20062;-70
2023/06/16 12:19:35;;;;;;;14.85;13.35;;;;;;;;;;10055271;28;20065;-70
2023/06/16 12:24:32;;;;;;;13.30;12.20;;;;;;;;;;10053439;29;20392;-69
2023/06/16 12:29:28;;;;;;;14.95;13.27;;;;;;;;;;10054758;28;20118;-68
2023/06/16 12:34:26;;;;;;;16.83;12.60;;;;;;;;;;10049486;28;20043;-69
2023/06/16 12:39:22;;;;;;;15.43;13.93;;;;;;;;;;10037273;28;20457;-69
2023/06/16 12:44:18;;;;;;;15.70;14.07;;;;;;;;;;10058418;28;20122;-69
2023/06/16 12:49:15;;;;;;;15.35;13.18;;;;;;;;;;10055449;28;20548;-69
2023/06/16 12:54:11;;;;;;;17.02;13.07;;;;;;;;;;10064243;29;20051;-69
2023/06/16 12:59:07;;;;;;;15.95;14.48;;;;;;;;;;10049762;28;20155;-69
2023/06/16 13:04:04;;;;;;;13.85;12.65;;;;;;;;;;10065104;28;20197;-69
2023/06/16 13:09:00;;;;;;;14.60;13.18;;;;;;;;;;10060918;29;20074;-69
2023/06/16 13:13:56;;;;;;;13.05;11.82;;;;;;;;;;10059150;28;20047;-69
2023/06/16 13:18:53;;;;;;;12.70;11.50;;;;;;;;;;10044349;28;20060;-69
2023/06/16 13:23:49;;;;;;;13.02;11.77;;;;;;;;;;10064073;29;20055;-69
2023/06/16 13:28:47;;;;;;;11.82;10.73;;;;;;;;;;10053095;29;20580;-69
2023/06/16 13:33:43;;;;;;;11.60;10.45;;;;;;;;;;10057740;29;20557;-70
2023/06/16 13:38:41;;;;;;;11.88;10.63;;;;;;;;;;10067620;28;20102;-70
2023/06/16 13:43:37;;;;;;;10.10;9.00;;;;;;;;;;10058849;29;20059;-70
2023/06/16 13:48:34;;;;;;;10.70;9.60;;;;;;;;;;10058373;29;20051;-69
2023/06/16 13:53:30;;;;;;;10.07;9.07;;;;;;;;;;10051081;29;20043;-69
2023/06/16 13:58:26;;;;;;;9.80;8.82;;;;;;;;;;10058049;29;20387;-69
2023/06/16 14:03:25;;;;;;;11.48;10.30;;;;;;;;;;10066721;29;20126;-70
2023/06/16 14:08:22;;;;;;;10.07;9.05;;;;;;;;;;10056443;29;20139;-69
2023/06/16 14:13:19;;;;;;;11.38;10.27;;;;;;;;;;10049757;28;20161;-69
2023/06/16 14:18:16;;;;;;;10.27;9.40;;;;;;;;;;10061733;29;20629;-69
2023/06/16 14:23:12;;;;;;;10.05;9.10;;;;;;;;;;10059268;28;20054;-69
2023/06/16 14:28:09;;;;;;;9.60;8.80;;;;;;;;;;10033723;28;20533;-69
2023/06/16 14:33:07;;;;;;;9.85;8.52;;;;;;;;;;10057190;28;20047;-69
2023/06/16 14:38:06;;;;;;;9.30;8.50;;;;;;;;;;10049440;28;20075;-69
2023/06/16 14:43:02;;;;;;;16.20;9.73;;;;;;;;;;10058819;28;20047;-69
2023/06/16 14:47:59;;;;;;;12.77;9.40;;;;;;;;;;10060295;28;20110;-69
2023/06/16 14:52:55;;;;;;;11.30;10.18;;;;;;;;;;10060398;29;20043;-70
2023/06/16 14:57:54;;;;;;;11.02;10.02;;;;;;;;;;10063029;29;20126;-69
2023/06/16 15:02:51;;;;;;;14.07;10.48;;;;;;;;;;10060819;29;20051;-69
2023/06/16 15:07:47;;;;;;;14.73;10.88;;;;;;;;;;10055626;28;20051;-69
2023/06/16 15:12:43;;;;;;;10.95;9.65;;;;;;;;;;10055040;29;20035;-69
2023/06/16 15:17:41;;;;;;;10.35;9.35;;;;;;;;;;10052034;28;20081;-69
2023/06/16 15:22:37;;;;;;;11.27;10.18;;;;;;;;;;10066903;28;20480;-69
2023/06/16 15:27:33;;;;;;;11.35;9.73;;;;;;;;;;10063222;28;20537;-69
2023/06/16 15:32:30;;;;;;;13.57;9.57;;;;;;;;;;10051843;29;20501;-69
2023/06/16 15:37:27;;;;;;;10.63;9.50;;;;;;;;;;10042452;29;20118;-69
2023/06/16 15:42:23;;;;;;;12.57;10.00;;;;;;;;;;10051086;28;20059;-69
2023/06/16 15:47:20;;;;;;;10.70;9.57;;;;;;;;;;10063154;28;20799;-69
2023/06/16 15:52:16;;;;;;;11.65;9.85;;;;;;;;;;10060637;28;20039;-69
2023/06/16 15:57:12;;;;;;;11.20;9.98;;;;;;;;;;10041704;28;20062;-69
2023/06/16 16:02:09;;;;;;;11.70;8.73;;;;;;;;;;10059046;28;20438;-69
2023/06/16 16:07:05;;;;;;;12.68;9.23;;;;;;;;;;10049758;28;20070;-69
2023/06/16 16:12:02;;;;;;;10.40;9.40;;;;;;;;;;10044597;28;20051;-69
2023/06/16 16:16:58;;;;;;;9.90;9.00;;;;;;;;;;10038716;28;20063;-69
2023/06/16 16:21:56;;;;;;;9.82;8.93;;;;;;;;;;10049041;28;20506;-69
2023/06/16 16:26:52;;;;;;;11.80;8.85;;;;;;;;;;10046374;28;20059;-69
2023/06/16 16:31:49;;;;;;;8.80;8.00;;;;;;;;;;10046437;28;20091;-68
2023/06/16 16:36:45;;;;;;;9.50;8.60;;;;;;;;;;10061032;28;20075;-69
2023/06/16 16:41:42;;;;;;;12.82;9.43;;;;;;;;;;10056243;28;20055;-69
2023/06/16 16:46:39;;;;;;;9.35;8.30;;;;;;;;;;10054144;28;20057;-69
2023/06/16 16:51:35;;;;;;;11.73;9.45;;;;;;;;;;10053223;28;20043;-69
2023/06/16 16:56:32;;;;;;;9.48;8.48;;;;;;;;;;10053021;28;20600;-69
2023/06/16 17:01:28;;;;;;;9.63;8.55;;;;;;;;;;10045126;28;20512;-70
2023/06/16 17:06:24;;;;;;;9.88;8.05;;;;;;;;;;10033764;28;20506;-69
2023/06/16 17:11:21;;;;;;;10.70;9.57;;;;;;;;;;10062019;28;20043;-69
2023/06/16 17:16:18;;;;;;;10.55;9.07;;;;;;;;;;10053538;29;20068;-68
2023/06/16 17:21:14;;;;;;;11.55;8.35;;;;;;;;;;10053389;28;20505;-69
2023/06/16 17:26:10;;;;;;;14.55;8.93;;;;;;;;;;10051542;28;20043;-69
2023/06/16 17:31:07;;;;;;;9.93;8.98;;;;;;;;;;10058733;28;20521;-69
2023/06/16 17:36:04;;;;;;;13.55;9.20;;;;;;;;;;10055627;28;20047;-70
2023/06/16 17:41:00;;;;;;;11.70;9.85;;;;;;;;;;10066550;28;20043;-69
2023/06/16 17:45:56;;;;;;;11.57;9.00;;;;;;;;;;10060644;28;20098;-69
2023/06/16 17:50:53;;;;;;;10.70;9.25;;;;;;;;;;10053408;28;20671;-69
2023/06/16 17:55:50;;;;;;;11.73;8.93;;;;;;;;;;10062572;28;20043;-69
2023/06/16 18:00:46;;;;;;;11.27;8.65;;;;;;;;;;10069906;28;20053;-69
2023/06/16 18:05:42;;;;;;;10.18;8.45;;;;;;;;;;10058915;28;20059;-69
2023/06/16 18:10:39;;;;;;;10.18;7.68;;;;;;;;;;10065843;29;20517;-69
2023/06/16 18:15:36;;;;;;;9.73;8.23;;;;;;;;;;10058211;28;20047;-69
2023/06/16 18:20:33;;;;;;;8.85;7.70;;;;;;;;;;10068099;28;20452;-70
2023/06/16 18:25:29;;;;;;;14.00;9.38;;;;;;;;;;10052114;29;20126;-69
2023/06/16 18:30:25;;;;;;;12.73;9.32;;;;;;;;;;10062055;28;20048;-69
2023/06/16 18:35:22;;;;;;;14.68;9.23;;;;;;;;;;10043565;28;20051;-69
2023/06/16 18:40:18;;;;;;;13.50;10.27;;;;;;;;;;10034816;29;20075;-69
2023/06/16 18:45:15;;;;;;;9.77;8.77;;;;;;;;;;10066104;28;20549;-70
2023/06/16 18:50:11;;;;;;;9.90;8.85;;;;;;;;;;10060979;28;20087;-70
2023/06/16 18:55:08;;;;;;;13.20;8.90;;;;;;;;;;10063311;29;20075;-70
2023/06/16 19:00:08;;;;;;;11.73;9.20;;;;;;;;;;10062580;29;20039;-70
2023/06/16 19:05:07;;;;;;;13.45;8.43;;;;;;;;;;10037315;28;20130;-70
2023/06/16 19:10:03;;;;;;;12.98;8.93;;;;;;;;;;10065631;29;20055;-68
2023/06/16 19:15:00;;;;;;;12.98;10.05;;;;;;;;;;10055352;28;20051;-70
2023/06/16 19:19:56;;;;;;;21.02;11.20;;;;;;;;;;10061568;28;20131;-70
2023/06/16 19:24:53;;;;;;;11.65;10.18;;;;;;;;;;10062393;29;20110;-70
2023/06/16 19:29:49;;;;;;;17.55;11.07;;;;;;;;;;10054178;28;20048;-70
2023/06/16 19:34:46;;;;;;;16.20;10.70;;;;;;;;;;10057012;28;20039;-70
2023/06/16 19:39:42;;;;;;;17.00;12.25;;;;;;;;;;10053106;29;20082;-70
2023/06/16 19:44:38;;;;;;;19.73;12.60;;;;;;;;;;10062791;28;20102;-69
2023/06/16 19:49:35;;;;;;;14.05;11.30;;;;;;;;;;10058745;28;20059;-70
2023/06/16 19:54:32;;;;;;;13.13;11.18;;;;;;;;;;10047682;28;20043;-70
2023/06/16 19:59:28;;;;;;;16.48;12.60;;;;;;;;;;10043569;29;20035;-70
2023/06/16 20:04:24;;;;;;;13.73;12.32;;;;;;;;;;10060911;28;20086;-70
2023/06/16 20:09:24;;;;;;;14.80;13.35;;;;;;;;;;10044474;29;20051;-70
2023/06/16 20:14:21;;;;;;;14.63;13.18;;;;;;;;;;10049409;28;20091;-70
2023/06/16 20:19:20;;;;;;;18.25;13.88;;;;;;;;;;10062205;28;20047;-70
2023/06/16 20:24:17;;;;;;;19.27;12.63;;;;;;;;;;10053193;29;20039;-70
2023/06/16 20:29:14;;;;;;;18.38;13.38;;;;;;;;;;10055011;28;20047;-70
2023/06/16 20:34:10;;;;;;;16.00;13.73;;;;;;;;;;10050907;28;20533;-70
2023/06/16 20:39:09;;;;;;;17.98;15.32;;;;;;;;;;10060172;28;20043;-69
2023/06/16 20:44:06;;;;;;;24.20;15.70;;;;;;;;;;10057316;29;20043;-70
2023/06/16 20:49:08;;;;;;;17.05;14.85;;;;;;;;;;10054849;29;20433;-70
2023/06/16 20:54:05;;;;;;;17.05;15.35;;;;;;;;;;10047856;29;20410;-70
2023/06/16 20:59:02;;;;;;;17.77;15.35;;;;;;;;;;10048343;28;20110;-70
2023/06/16 21:03:58;;;;;;;17.40;15.57;;;;;;;;;;10051040;28;20066;-70
2023/06/16 21:09:03;;;;;;;19.80;14.77;;;;;;;;;;10049896;28;20114;-70
2023/06/16 21:14:00;;;;;;;18.27;15.80;;;;;;;;;;10061493;28;20048;-70
2023/06/16 21:18:57;;;;;;;20.10;15.60;;;;;;;;;;10053579;28;20469;-70
2023/06/16 21:23:54;;;;;;;16.73;15.00;;;;;;;;;;10065158;28;20059;-70
2023/06/16 21:28:53;;;;;;;21.13;16.40;;;;;;;;;;10067875;28;20526;-70
2023/06/16 21:33:49;;;;;;;19.48;16.13;;;;;;;;;;10068230;29;20055;-70
2023/06/16 21:38:53;;;;;;;21.23;15.65;;;;;;;;;;10069331;29;20044;-70
2023/06/16 21:43:50;;;;;;;21.73;18.48;;;;;;;;;;10072104;29;20505;-70
2023/06/16 21:48:46;;;;;;;35.97;19.70;;;;;;;;;;10067058;29;20043;-70
2023/06/16 21:53:43;;;;;;;21.75;19.27;;;;;;;;;;10063749;29;20082;-70
2023/06/16 21:58:39;;;;;;;23.15;18.25;;;;;;;;;;10062505;28;20069;-69
2023/06/16 22:03:35;;;;;;;24.00;18.45;;;;;;;;;;10066560;29;20043;-70
2023/06/16 22:08:32;;;;;;;22.33;19.77;;;;;;;;;;10067992;28;20137;-69
2023/06/16 22:13:28;;;;;;;21.35;18.48;;;;;;;;;;10060024;29;20055;-70
2023/06/16 22:18:25;;;;;;;22.00;19.52;;;;;;;;;;10041118;29;20043;-70
2023/06/16 22:23:21;;;;;;;22.92;19.70;;;;;;;;;;10056227;28;20543;-69
2023/06/16 22:28:21;;;;;;;22.70;20.25;;;;;;;;;;10059125;29;20089;-70
2023/06/16 22:33:17;;;;;;;30.60;21.33;;;;;;;;;;10063235;28;20564;-70
2023/06/16 22:38:13;;;;;;;22.55;19.52;;;;;;;;;;10053060;28;20043;-70
2023/06/16 22:43:10;;;;;;;24.35;19.98;;;;;;;;;;10062857;29;20039;-70
2023/06/16 22:48:07;;;;;;;25.25;19.08;;;;;;;;;;10069060;28;20043;-70
2023/06/16 22:53:03;;;;;;;21.60;19.15;;;;;;;;;;10070780;28;20450;-69
2023/06/16 22:58:02;;;;;;;26.35;19.20;;;;;;;;;;10060508;28;20050;-69
2023/06/16 23:02:59;;;;;;;18.38;16.38;;;;;;;;;;10061776;29;20050;-70
2023/06/16 23:07:55;;;;;;;25.58;18.75;;;;;;;;;;10063632;29;20047;-69
2023/06/16 23:12:53;;;;;;;23.17;20.35;;;;;;;;;;10063707;29;20040;-69
2023/06/16 23:17:49;;;;;;;22.27;19.08;;;;;;;;;;10058842;29;20134;-70
2023/06/16 23:22:45;;;;;;;24.20;20.10;;;;;;;;;;10058942;28;20047;-70
2023/06/16 23:27:42;;;;;;;25.20;21.70;;;;;;;;;;10059284;28;20043;-70
2023/06/16 23:32:38;;;;;;;23.25;18.67;;;;;;;;;;10057990;28;20109;-70
2023/06/16 23:37:35;;;;;;;20.40;18.30;;;;;;;;;;10063033;29;20047;-70
2023/06/16 23:42:32;;;;;;;26.05;19.75;;;;;;;;;;10045045;29;20117;-70
2023/06/16 23:47:30;;;;;;;21.80;19.30;;;;;;;;;;10061606;28;20039;-70
2023/06/16 23:52:27;;;;;;;24.98;21.83;;;;;;;;;;10057665;29;20129;-70
2023/06/16 23:57:24;;;;;;;25.15;21.08;;;;;;;;;;10052502;28;20050;-69
